AirNav   Phillips 66 Aviation Fuel
 
 818 users online  

66IN Oakes Field Airport
Charlottesville, Indiana, USA

GOING TO CHARLOTTESVILLE?


FAA INFORMATION EFFECTIVE 14 SEPTEMBER 2017

Location

FAA Identifier: 66IN
Lat/Long: 39-47-15.0000N / 085-38-13.0000W
39-47.250000N / 085-38.216667W
39.7875000 / -85.6369444
(estimated)
Elevation: 935 ft. / 285 m (estimated)
Variation: 03W (1995)
From city: 1 mile W of CHARLOTTESVILLE, IN
Time zone: UTC -4 (UTC -5 during Standard Time)
Zip code: 46140

Airport Operations

Airport use: Private use. Permission required prior to landing
Activation date: 02/1998
Control tower: no
ARTCC: INDIANAPOLIS CENTER
FSS: TERRE HAUTE FLIGHT SERVICE STATION
Attendance: CONTINUOUS
Segmented circle: no

Airport Communications

WX AWOS-3 at MQJ (12 nm W): 124.175 (317-335-3037)
WX ASOS at GEZ (15 nm SW): 121.55 (317-398-0246)
WX AWOS-3 at AID (19 nm N): 128.55 (765-378-1510)

Nearby radio navigation aids

VOR radial/distance  VOR name  Freq  Var
SHBr042/12.7SHELBYVILLE VOR/DME112.0001E
MIEr205/29.2MUNCIE VOR/DME114.4003W
VHPr092/33.7BRICKYARD VORTAC116.3001E
RIDr276/36.9RICHMOND VORTAC110.6003W

 
NDB name  Hdg/Dist  Freq  Var  ID
NEW CASTLE251/15.738502WUWL ..- .-- .-..
METROPOLITAN118/21.133803WUMP ..- -- .--.
BATESVILLE331/31.625405WHLB .... .-.. -...

Airport Services

Runway Information

Runway 18/36

Dimensions: 1025 x 75 ft. / 312 x 23 m
Surface: turf, in good condition
RUNWAY 18  RUNWAY 36
Traffic pattern: leftleft

Airport Ownership and Management from official FAA records

Ownership: Privately-owned
Owner: DAVID W. OAKES
8933 EAST HIGHWAY 40
GREENFIELD, IN 46140
Phone 317-936-5500
Manager: DAVID W. OAKES
8933 EAST HIGHWAY 40
GREENFIELD, IN 46140
Phone 317-936-5500

Airport Operational Statistics

Aircraft based on the field: 1
Single engine airplanes: 1
    

Instrument Procedures

There are no published instrument procedures at 66IN.

Some nearby airports with instrument procedures:

KMQJ - Indianapolis Regional Airport (12 nm W)
KGEZ - Shelbyville Municipal Airport (15 nm SW)
KUWL - New Castle-Henry County Municipal Airport (15 nm E)
KAID - Anderson Municipal Airport-Darlington Field (19 nm N)
KUMP - Indianapolis Metropolitan Airport (21 nm NW)
 
Loc | Ops | Rwys | IFR | FBO | Links
Com | Nav | Svcs | Stats | Notes


 
Area around 66IN (Oakes Field Airport)
 
Road maps at: MapQuest Bing Google
 
Aerial photo
No photo
 
Sectional chart

 
Airport distance calculator
Flying to Oakes Field Airport? Find the distance to fly.

From to 66IN

Sunrise and sunset
Times for 26-Sep-2017
 Local
(UTC-4)
 Zulu
(UTC)
Morning civil twilight07:0811:08
Sunrise07:3511:35
Sunset19:3323:33
Evening civil twilight20:0024:00

Current date and time
Zulu (UTC)  26-Sep-2017 12:10:36
Local (UTC-4)  26-Sep-2017 08:10:36
 
METAR
KMQJ 
12nm W 
261152Z AUTO 00000KT 10SM CLR 17/16 A3003 RMK AO1
KGEZ 
14nm SW 
261153Z AUTO 00000KT 10SM CLR 18/16 A3002 RMK AO2 SLP162 T01780156 10189 20172 53009
KAID 
20nm N 
261159Z 00000KT 10SM CLR 19/17 A3004
KHFY 
23nm SW 
261155Z AUTO 00000KT 10SM CLR 19/18 A3003 RMK AO2 7//// T01900177 10217 20188
TAF
KIND 
30nm W 
260833Z 2609/2712 16003KT P6SM FEW200= TAF AMD KAPA 260834Z 2609/2706 VRB04KT P6SM BKN028 OVC050 FM261000 18004KT P6SM VCFG BKN020 BKN040 FM261600 20005KT P6SM FEW025 FM262100 09010KT P6SM FEW050 FM270400 16008KT P6SM BKN050
NOTAMs
Click for the latest NOTAMs
NOTAMs are issued by the DoD/FAA and will open in a separate window not controlled by AirNav.

 

 
 

Would you like to see your business listed on this page?

 If your business provides an interesting product or service to pilots, flight crews, aircraft, or users of the Oakes Field Airport, you should consider listing it here.  To start the listing process, click on the button below
 
Add a business
 

Other Pages about Oakes Field Airport

Update a link
 
Copyright © AirNav, LLC. All rights reserved. Privacy Policy  Contact